Time;durP1;ratioP1;P1;durP2;ratioP2;P2;SDS_P1;SDS_P2;PMS_P1;PMS_P2;Temp;Humidity;BMP_temperature;BMP_pressure;BME280_temperature;BME280_humidity;BME280_pressure;Samples;Min_cycle;Max_cycle;Signal;HPM_P1;HPM_P2
2021/07/12 00:00:53;;;;;;;2.92;1.40;;;;;;;21.94;60.63;101059.72;5007059;28;20048;-64
2021/07/12 00:03:19;;;;;;;1.75;1.33;;;;;;;21.95;60.56;101049.88;5008936;28;20053;-64
2021/07/12 00:05:44;;;;;;;2.20;1.45;;;;;;;21.94;60.52;101054.38;5006256;28;20677;-64
2021/07/12 00:08:10;;;;;;;2.42;1.20;;;;;;;21.94;60.48;101056.22;5000005;28;20549;-65
2021/07/12 00:10:36;;;;;;;2.63;1.50;;;;;;;21.95;60.97;101058.69;5003633;28;20432;-64
2021/07/12 00:13:03;;;;;;;1.77;1.23;;;;;;;21.94;60.71;101054.38;5009048;28;20049;-64
2021/07/12 00:15:29;;;;;;;3.45;1.58;;;;;;;21.95;60.82;101057.88;5009006;28;20038;-64
2021/07/12 00:17:55;;;;;;;1.80;1.48;;;;;;;21.94;60.85;101054.38;5023221;28;20064;-65
2021/07/12 00:20:22;;;;;;;1.83;1.40;;;;;;;21.94;60.52;101057.06;5007811;28;20042;-64
2021/07/12 00:22:49;;;;;;;1.63;1.08;;;;;;;21.93;60.75;101058.06;5008862;28;20108;-64
2021/07/12 00:25:16;;;;;;;2.30;1.50;;;;;;;21.94;60.86;101058.91;4998851;28;20045;-64
2021/07/12 00:27:42;;;;;;;1.88;1.30;;;;;;;21.94;60.87;101057.06;5007155;28;20100;-64
2021/07/12 00:30:11;;;;;;;2.42;1.48;;;;;;;21.93;60.74;101058.06;5001620;28;20038;-64
2021/07/12 00:32:37;;;;;;;2.05;1.30;;;;;;;21.94;60.50;101058.91;5006166;28;20109;-64
2021/07/12 00:35:05;;;;;;;2.35;1.33;;;;;;;21.93;60.80;101055.38;5025208;28;20036;-64
2021/07/12 00:37:31;;;;;;;2.00;1.50;;;;;;;21.93;60.95;101055.38;5024878;28;20045;-64
2021/07/12 00:39:57;;;;;;;2.15;1.30;;;;;;;21.93;60.69;101057.22;5019069;28;20029;-64
2021/07/12 00:42:22;;;;;;;1.88;1.30;;;;;;;21.93;60.84;101052.72;5025748;28;20526;-64
2021/07/12 00:44:47;;;;;;;1.48;1.20;;;;;;;21.92;60.76;101056.41;5022810;28;20466;-64
2021/07/12 00:47:13;;;;;;;1.63;1.20;;;;;;;21.92;60.76;101056.41;5026604;28;20033;-64
2021/07/12 00:49:39;;;;;;;1.50;1.13;;;;;;;21.92;60.65;101051.06;5022957;28;20037;-64
2021/07/12 00:52:04;;;;;;;1.50;1.20;;;;;;;21.92;60.58;101066.28;5024808;28;20053;-65
2021/07/12 00:54:30;;;;;;;2.50;1.40;;;;;;;21.91;60.38;101057.44;5044150;28;20042;-64
2021/07/12 00:56:58;;;;;;;1.75;1.20;;;;;;;21.92;60.33;101061.75;5026730;28;20033;-64
2021/07/12 00:59:25;;;;;;;4.35;1.40;;;;;;;21.93;60.65;101062.56;5010164;28;20089;-64
2021/07/12 01:01:51;;;;;;;2.40;1.50;;;;;;;21.92;60.64;101052.91;5011498;28;20042;-64
2021/07/12 01:04:17;;;;;;;1.95;1.40;;;;;;;21.93;60.76;101050.03;5010834;28;20033;-64
2021/07/12 01:06:42;;;;;;;2.10;1.30;;;;;;;21.91;60.75;101057.44;5011737;28;20073;-64
2021/07/12 01:09:08;;;;;;;1.70;1.40;;;;;;;21.91;60.51;101049.44;5007841;28;20030;-65
2021/07/12 01:12:01;;;;;;;1.60;1.20;;;;;;;21.89;60.28;101048.81;5007677;28;20394;-64
2021/07/12 01:15:03;;;;;;;1.90;1.23;;;;;;;21.87;60.70;101052.72;5007876;28;20508;-64
2021/07/12 01:17:53;;;;;;;2.45;1.35;;;;;;;21.89;60.75;101050.66;5008746;28;20136;-64
2021/07/12 01:20:58;;;;;;;2.20;1.40;;;;;;;21.86;60.43;101056.44;5008962;28;20033;-64
2021/07/12 01:23:38;;;;;;;2.10;1.30;;;;;;;21.87;60.62;101053.53;4997056;28;20039;-64
2021/07/12 01:26:13;;;;;;;2.28;1.50;;;;;;;21.86;60.41;101051.91;5010927;28;20137;-64
2021/07/12 01:28:41;;;;;;;1.92;1.30;;;;;;;21.89;60.51;101062.16;5010604;28;20030;-64
2021/07/12 01:31:38;;;;;;;2.42;1.40;;;;;;;21.86;60.77;101054.56;5011344;28;20046;-64
2021/07/12 01:34:08;;;;;;;1.67;1.33;;;;;;;21.88;60.34;101057.84;4999199;28;20496;-64
2021/07/12 01:36:38;;;;;;;1.77;1.38;;;;;;;21.88;60.38;101049.03;5010322;28;20026;-64
2021/07/12 01:39:08;;;;;;;1.73;1.25;;;;;;;21.87;60.42;101048.22;5010935;28;20100;-64
2021/07/12 01:41:46;;;;;;;1.45;1.10;;;;;;;21.89;60.46;101051.50;5000062;28;20026;-64
2021/07/12 01:44:25;;;;;;;2.10;1.13;;;;;;;21.88;60.63;101052.50;5010797;28;20088;-64
2021/07/12 01:47:31;;;;;;;1.27;1.08;;;;;;;21.83;60.78;101049.66;5010761;28;20034;-64
2021/07/12 01:50:20;;;;;;;1.52;1.20;;;;;;;21.84;60.71;101048.63;4979178;28;20045;-64
2021/07/12 01:53:20;;;;;;;1.65;1.10;;;;;;;21.84;60.35;101056.63;5028934;28;20041;-64
2021/07/12 01:55:55;;;;;;;1.85;1.30;;;;;;;21.87;60.61;101050.88;5012025;28;20473;-64
2021/07/12 01:58:33;;;;;;;1.67;1.20;;;;;;;21.88;60.47;101046.34;5004052;28;20796;-64
2021/07/12 02:01:00;;;;;;;1.65;1.20;;;;;;;21.87;60.52;101040.19;5022326;28;20397;-63
2021/07/12 02:03:28;;;;;;;2.22;1.17;;;;;;;21.87;60.82;101042.88;5008722;28;20046;-65
2021/07/12 02:05:57;;;;;;;1.70;1.13;;;;;;;21.86;60.44;101046.56;5008447;28;20505;-64
2021/07/12 02:08:25;;;;;;;1.45;1.20;;;;;;;21.87;60.74;101047.38;5008525;28;20316;-64
2021/07/12 02:10:52;;;;;;;1.48;1.15;;;;;;;21.87;60.41;101042.88;5009108;28;20145;-65
2021/07/12 02:13:18;;;;;;;1.95;1.20;;;;;;;21.87;60.52;101047.38;5009687;28;20466;-64
2021/07/12 02:15:47;;;;;;;1.63;1.20;;;;;;;21.87;60.46;101039.38;5011020;28;20034;-64
2021/07/12 02:18:14;;;;;;;2.20;1.40;;;;;;;21.87;60.40;101042.03;5009433;28;20042;-64
2021/07/12 02:20:40;;;;;;;1.50;1.30;;;;;;;21.87;60.61;101048.22;5009409;28;20080;-64
2021/07/12 02:23:08;;;;;;;2.38;1.50;;;;;;;21.86;60.73;101041.22;5010288;28;20469;-64
2021/07/12 02:25:34;;;;;;;1.20;1.10;;;;;;;21.86;60.80;101046.56;5010713;28;20030;-64
2021/07/12 02:28:01;;;;;;;1.58;1.10;;;;;;;21.87;60.74;101047.38;5010306;28;20058;-64
2021/07/12 02:30:29;;;;;;;1.60;1.15;;;;;;;21.87;60.83;101050.06;5008431;28;20045;-64
2021/07/12 02:32:55;;;;;;;1.77;1.10;;;;;;;21.87;60.75;101053.53;5003779;28;20031;-64
2021/07/12 02:35:21;;;;;;;1.25;1.10;;;;;;;21.86;60.48;101045.75;5006648;28;20045;-64
2021/07/12 02:37:47;;;;;;;1.90;1.20;;;;;;;21.86;60.62;101049.22;5008698;28;20034;-64
2021/07/12 02:40:18;;;;;;;2.05;1.30;;;;;;;21.85;60.79;101044.09;5009791;28;20041;-64
2021/07/12 02:42:46;;;;;;;1.33;1.10;;;;;;;21.87;60.78;101044.72;5009558;28;20034;-64
2021/07/12 02:45:14;;;;;;;2.53;1.13;;;;;;;21.86;60.49;101056.44;5009493;28;20509;-64
2021/07/12 02:47:40;;;;;;;2.53;1.30;;;;;;;21.86;60.68;101051.09;5009840;28;20033;-64
2021/07/12 02:50:08;;;;;;;1.27;1.08;;;;;;;21.86;60.89;101056.44;5008732;28;20042;-64
2021/07/12 02:52:42;;;;;;;1.33;1.20;;;;;;;21.84;60.43;101059.31;5009757;28;20052;-64
2021/07/12 02:55:07;;;;;;;1.60;1.17;;;;;;;21.85;60.64;101060.13;5009428;28;20492;-64
2021/07/12 02:57:33;;;;;;;1.35;1.05;;;;;;;21.84;60.41;101064.66;5009757;28;20045;-64
2021/07/12 02:59:58;;;;;;;1.58;1.00;;;;;;;21.83;60.48;101063.81;5024726;28;20038;-64
2021/07/12 03:02:24;;;;;;;1.60;1.30;;;;;;;21.83;60.44;101058.47;5009547;28;20695;-64
2021/07/12 03:04:49;;;;;;;1.75;1.00;;;;;;;21.83;60.52;101061.16;5009266;28;20548;-64
2021/07/12 03:07:26;;;;;;;1.73;1.30;;;;;;;21.81;60.61;101062.41;5009430;28;20464;-64
2021/07/12 03:09:55;;;;;;;1.30;1.10;;;;;;;21.83;60.47;101057.66;5009753;28;20030;-64
2021/07/12 03:12:44;;;;;;;2.25;1.00;;;;;;;21.79;60.43;101061.78;5008664;28;20060;-64
2021/07/12 03:15:15;;;;;;;1.35;0.93;;;;;;;21.81;60.42;101060.53;5008968;28;20038;-65
2021/07/12 03:17:52;;;;;;;1.42;1.10;;;;;;;21.80;60.34;101058.91;5009208;28;20138;-64
2021/07/12 03:20:19;;;;;;;1.52;1.20;;;;;;;21.82;60.36;101059.50;4998341;28;20030;-64
2021/07/12 03:22:53;;;;;;;1.58;1.17;;;;;;;21.80;60.42;101052.75;5001280;28;20038;-63
2021/07/12 03:25:26;;;;;;;1.67;1.25;;;;;;;21.80;60.58;101058.91;4996168;28;20033;-64
2021/07/12 03:27:56;;;;;;;1.02;0.90;;;;;;;21.82;60.66;101061.38;5009759;28;20077;-64
2021/07/12 03:30:22;;;;;;;1.58;1.02;;;;;;;21.83;60.29;101057.66;5008820;28;20512;-64
2021/07/12 03:32:49;;;;;;;1.80;1.33;;;;;;;21.82;60.22;101059.50;5012572;28;20034;-64
2021/07/12 03:35:16;;;;;;;1.48;1.20;;;;;;;21.82;60.39;101058.69;5006346;28;20113;-64
2021/07/12 03:37:42;;;;;;;1.25;1.02;;;;;;;21.80;60.39;101048.22;5009187;28;20037;-64
2021/07/12 03:40:09;;;;;;;1.10;0.98;;;;;;;21.82;60.67;101050.69;5009272;28;20041;-64
2021/07/12 03:42:35;;;;;;;1.23;1.10;;;;;;;21.82;60.73;101050.69;5008139;28;20037;-64
2021/07/12 03:45:02;;;;;;;1.83;1.33;;;;;;;21.81;60.74;101052.53;5003703;28;20038;-64
2021/07/12 03:47:30;;;;;;;1.52;1.10;;;;;;;21.81;60.76;101049.03;5023664;28;20042;-64
2021/07/12 03:50:13;;;;;;;1.65;1.20;;;;;;;21.78;60.78;101049.47;5008413;28;20034;-65
2021/07/12 03:52:52;;;;;;;1.38;1.20;;;;;;;21.78;60.67;101044.13;5003357;28;20104;-64
2021/07/12 03:55:20;;;;;;;1.52;1.17;;;;;;;21.80;60.49;101048.22;5003625;28;20058;-64
2021/07/12 03:57:47;;;;;;;1.30;1.20;;;;;;;21.80;60.68;101053.56;5008649;28;20029;-64
2021/07/12 04:00:16;;;;;;;1.13;0.98;;;;;;;21.80;60.56;101048.22;5006552;28;20042;-64
2021/07/12 04:02:43;;;;;;;1.42;1.05;;;;;;;21.80;60.50;101055.41;5016277;28;20461;-64
2021/07/12 04:05:10;;;;;;;1.50;1.17;;;;;;;21.79;60.33;101051.09;5017421;28;20076;-64
2021/07/12 04:07:36;;;;;;;1.52;1.02;;;;;;;21.79;60.74;101051.91;5006846;28;20035;-64
2021/07/12 04:10:09;;;;;;;1.52;1.30;;;;;;;21.80;60.38;101060.75;5008259;28;20045;-64
2021/07/12 04:12:35;;;;;;;1.77;1.20;;;;;;;21.79;60.43;101061.78;5008285;28;20034;-64
2021/07/12 04:15:01;;;;;;;1.20;1.10;;;;;;;21.79;60.26;101059.94;5023542;28;20038;-64
2021/07/12 04:17:26;;;;;;;1.42;1.20;;;;;;;21.78;60.66;101063.63;5008792;28;20040;-64
2021/07/12 04:19:52;;;;;;;1.98;1.10;;;;;;;21.78;60.82;101057.47;5007290;28;20037;-64
2021/07/12 04:22:18;;;;;;;1.85;1.02;;;;;;;21.78;60.63;101058.28;4998995;28;20026;-64
2021/07/12 04:24:43;;;;;;;1.73;1.00;;;;;;;21.79;60.49;101061.78;5006092;28;20103;-64
2021/07/12 04:27:09;;;;;;;1.30;1.10;;;;;;;21.78;60.73;101060.13;5007958;28;20401;-64
2021/07/12 04:29:34;;;;;;;1.52;1.10;;;;;;;21.78;60.71;101057.47;4994764;28;20030;-64
2021/07/12 04:32:01;;;;;;;1.17;1.08;;;;;;;21.77;60.87;101063.81;5007461;28;20868;-64
2021/07/12 04:34:28;;;;;;;1.48;1.00;;;;;;;21.78;60.40;101071.63;5000524;28;20123;-64
2021/07/12 04:36:54;;;;;;;2.15;1.20;;;;;;;21.78;60.50;101073.50;5008398;28;20033;-64
2021/07/12 04:39:20;;;;;;;1.73;1.00;;;;;;;21.77;60.80;101069.16;5007864;28;20045;-64
2021/07/12 04:41:46;;;;;;;1.60;1.00;;;;;;;21.77;60.80;101066.47;4990988;28;20042;-64
2021/07/12 04:44:11;;;;;;;2.35;1.45;;;;;;;21.77;60.50;101064.63;5008492;28;20156;-64
2021/07/12 04:46:36;;;;;;;1.30;1.00;;;;;;;21.76;60.45;101065.66;5007457;28;20038;-64
2021/07/12 04:49:03;;;;;;;1.10;1.00;;;;;;;21.77;60.35;101069.16;5008314;28;20139;-64
2021/07/12 04:51:30;;;;;;;1.52;1.10;;;;;;;21.76;60.83;101067.50;5006881;28;20528;-64
2021/07/12 04:53:56;;;;;;;1.15;0.95;;;;;;;21.77;60.50;101066.47;5008712;28;20049;-64
2021/07/12 04:56:21;;;;;;;1.77;1.10;;;;;;;21.77;60.68;101066.47;5007685;28;20124;-64
2021/07/12 04:58:48;;;;;;;1.75;1.20;;;;;;;21.77;60.72;101069.97;5003259;28;20168;-64
2021/07/12 05:01:14;;;;;;;2.00;1.45;;;;;;;21.77;60.71;101069.97;5007663;28;20041;-66
2021/07/12 05:03:41;;;;;;;1.63;1.27;;;;;;;21.78;60.60;101076.16;5009174;28;20501;-64
2021/07/12 05:06:06;;;;;;;1.38;1.20;;;;;;;21.76;60.84;101080.84;5007610;28;20497;-64
2021/07/12 05:08:31;;;;;;;1.38;1.00;;;;;;;21.77;60.71;101085.16;5006486;28;20033;-64
2021/07/12 05:10:57;;;;;;;1.77;1.15;;;;;;;21.77;60.40;101071.81;5007816;28;20474;-64
2021/07/12 05:13:23;;;;;;;1.30;1.10;;;;;;;21.77;60.73;101077.16;5022807;28;20048;-63
2021/07/12 05:15:48;;;;;;;1.85;1.27;;;;;;;21.76;60.88;101079.00;5008272;28;20389;-64
2021/07/12 05:18:14;;;;;;;1.23;1.10;;;;;;;21.75;60.63;101081.88;5007378;28;20129;-64
2021/07/12 05:20:40;;;;;;;1.35;1.10;;;;;;;21.75;60.45;101074.69;5006639;28;20030;-64
2021/07/12 05:23:05;;;;;;;1.40;1.10;;;;;;;21.76;60.36;101083.53;4990997;28;20065;-64
2021/07/12 05:25:31;;;;;;;1.00;0.90;;;;;;;21.76;60.59;101078.19;5007157;28;20085;-64
2021/07/12 05:27:56;;;;;;;1.40;1.20;;;;;;;21.75;60.65;101081.88;4990333;28;20061;-65
2021/07/12 05:30:22;;;;;;;1.33;1.20;;;;;;;21.75;60.73;101074.69;4994184;28;20034;-64
2021/07/12 05:32:47;;;;;;;3.40;1.25;;;;;;;21.75;60.29;101082.69;5012205;28;20031;-64
2021/07/12 05:35:13;;;;;;;1.48;1.00;;;;;;;21.74;60.65;101080.25;5011894;28;20041;-64
2021/07/12 05:37:39;;;;;;;1.10;1.00;;;;;;;21.75;60.53;101081.88;5021055;28;20052;-63
2021/07/12 05:40:05;;;;;;;1.27;1.05;;;;;;;21.74;60.75;101085.59;5011406;28;20065;-64
2021/07/12 05:42:31;;;;;;;1.50;1.10;;;;;;;21.74;60.57;101085.59;4993045;28;20139;-64
2021/07/12 05:44:57;;;;;;;1.42;1.20;;;;;;;21.74;60.62;101077.56;5011175;28;20058;-64
2021/07/12 05:47:22;;;;;;;1.30;1.00;;;;;;;21.74;60.29;101085.59;5009930;28;20034;-64
2021/07/12 05:49:48;;;;;;;1.73;1.27;;;;;;;21.74;60.36;101085.59;5019284;28;20033;-64
2021/07/12 05:52:14;;;;;;;1.65;1.10;;;;;;;21.74;60.66;101085.59;5011421;28;20117;-64
2021/07/12 05:54:40;;;;;;;1.88;1.20;;;;;;;21.74;60.44;101090.94;5010195;28;20033;-64
2021/07/12 05:57:05;;;;;;;1.77;1.30;;;;;;;21.73;60.28;101083.94;4992924;28;20452;-64
2021/07/12 05:59:31;;;;;;;1.58;1.27;;;;;;;21.73;60.45;101081.28;5008901;28;20033;-65
2021/07/12 06:01:56;;;;;;;1.55;1.27;;;;;;;21.72;60.78;101085.78;5011105;28;20554;-64
2021/07/12 06:04:21;;;;;;;1.85;1.30;;;;;;;21.73;60.38;101089.28;5001387;28;20056;-65
2021/07/12 06:06:47;;;;;;;1.55;1.10;;;;;;;21.71;60.44;101091.34;5009857;28;20045;-64
2021/07/12 06:09:13;;;;;;;1.52;1.20;;;;;;;21.72;60.41;101091.13;5010712;28;20076;-64
2021/07/12 06:11:39;;;;;;;1.55;1.20;;;;;;;21.73;60.71;101102.63;5009857;28;20382;-64
2021/07/12 06:14:04;;;;;;;1.33;1.10;;;;;;;21.73;60.63;101099.97;5010541;28;20038;-64
2021/07/12 06:16:30;;;;;;;1.70;1.40;;;;;;;21.73;60.64;101103.44;5009259;28;20030;-64
2021/07/12 06:18:55;;;;;;;1.80;1.20;;;;;;;21.72;60.31;101107.16;5010322;28;20046;-64
2021/07/12 06:21:20;;;;;;;1.38;1.17;;;;;;;21.70;60.80;101109.22;5006284;28;20367;-64
2021/07/12 06:23:46;;;;;;;1.02;0.93;;;;;;;21.71;60.58;101112.69;4998631;28;20539;-64
2021/07/12 06:26:11;;;;;;;1.23;0.98;;;;;;;21.70;60.70;101111.88;5009985;28;20521;-64
2021/07/12 06:28:37;;;;;;;1.42;1.23;;;;;;;21.70;60.54;101114.53;5010120;28;20038;-64
2021/07/12 06:31:02;;;;;;;1.52;1.00;;;;;;;21.71;60.53;101115.38;5008741;28;20042;-64
2021/07/12 06:33:29;;;;;;;1.23;1.08;;;;;;;21.72;60.33;101122.34;4998745;28;20033;-64
2021/07/12 06:35:55;;;;;;;1.70;1.10;;;;;;;21.71;60.63;101118.03;5009414;28;20110;-64
2021/07/12 06:38:21;;;;;;;1.30;1.10;;;;;;;21.71;60.61;101112.69;5010252;28;20543;-64
2021/07/12 06:40:47;;;;;;;1.65;1.23;;;;;;;21.70;60.65;101117.22;5010226;28;20113;-64
2021/07/12 06:43:13;;;;;;;1.58;1.23;;;;;;;21.71;60.77;101112.69;5007619;28;20037;-64
2021/07/12 06:45:38;;;;;;;1.42;1.10;;;;;;;21.70;60.62;101117.22;5009621;28;20470;-64
2021/07/12 06:48:05;;;;;;;1.52;1.20;;;;;;;21.71;60.41;101112.69;5010166;28;20508;-64
2021/07/12 06:50:31;;;;;;;1.20;1.00;;;;;;;21.70;60.85;101127.06;5009145;28;20476;-64
2021/07/12 06:52:56;;;;;;;1.10;1.00;;;;;;;21.70;60.51;101124.41;5009787;28;20067;-64
2021/07/12 06:55:22;;;;;;;1.20;1.05;;;;;;;21.69;60.72;101120.09;5009706;28;20390;-64
2021/07/12 06:57:47;;;;;;;1.40;1.30;;;;;;;21.70;60.38;101132.41;5025248;28;20045;-63
2021/07/12 07:00:14;;;;;;;1.75;1.38;;;;;;;21.69;60.44;101130.78;4992081;28;20111;-64
2021/07/12 07:02:39;;;;;;;1.67;1.23;;;;;;;21.69;60.72;101126.25;5009821;28;20107;-64
2021/07/12 07:05:06;;;;;;;1.88;1.25;;;;;;;21.70;60.65;101132.41;5009255;28;20470;-64
2021/07/12 07:07:32;;;;;;;1.60;1.10;;;;;;;21.69;60.78;101133.44;5007740;28;20038;-64
2021/07/12 07:09:57;;;;;;;1.60;1.20;;;;;;;21.69;60.69;101136.13;5024882;28;20470;-64
2021/07/12 07:12:23;;;;;;;1.77;1.00;;;;;;;21.68;60.79;101135.28;5009800;28;20038;-64
2021/07/12 07:14:48;;;;;;;1.60;1.20;;;;;;;21.69;60.59;101138.78;5010094;28;20037;-64
2021/07/12 07:17:14;;;;;;;1.48;1.27;;;;;;;21.69;60.81;101144.94;5003706;28;20055;-64
2021/07/12 07:19:39;;;;;;;1.27;1.10;;;;;;;21.69;60.38;101141.44;5004654;28;20034;-64
2021/07/12 07:22:05;;;;;;;1.80;1.20;;;;;;;21.69;60.88;101146.78;5014363;28;20069;-63
2021/07/12 07:24:30;;;;;;;3.70;1.13;;;;;;;21.70;60.77;101143.09;5025255;28;20038;-63
2021/07/12 07:26:56;;;;;;;1.98;1.27;;;;;;;21.69;61.19;101147.63;5007702;28;20401;-65
2021/07/12 07:29:22;;;;;;;2.72;1.10;;;;;;;21.70;61.58;101148.44;5007433;28;20116;-65
2021/07/12 07:31:48;;;;;;;3.80;1.40;;;;;;;21.70;61.36;101149.25;5008533;28;20077;-65
2021/07/12 07:34:14;;;;;;;4.72;1.17;;;;;;;21.72;61.72;101149.06;5007320;28;20107;-66
2021/07/12 07:36:40;;;;;;;2.83;1.23;;;;;;;21.73;62.02;101148.03;5004903;28;20037;-64
2021/07/12 07:39:07;;;;;;;2.97;1.15;;;;;;;21.72;62.13;101152.53;5008947;28;20053;-64
2021/07/12 07:41:36;;;;;;;3.67;1.60;;;;;;;21.73;62.19;101154.19;5009135;28;20057;-66
2021/07/12 07:44:04;;;;;;;4.63;1.20;;;;;;;21.73;62.24;101153.38;5009278;28;20150;-65
2021/07/12 07:46:31;;;;;;;3.25;1.30;;;;;;;21.74;62.69;101155.84;5007020;28;20481;-64
2021/07/12 07:48:56;;;;;;;1.70;1.10;;;;;;;21.74;62.55;101153.16;5009374;28;20033;-64
2021/07/12 07:51:22;;;;;;;2.50;1.42;;;;;;;21.75;62.56;101156.66;5008192;28;20523;-64
2021/07/12 07:53:47;;;;;;;3.45;1.65;;;;;;;21.74;62.67;101157.69;5008022;28;20029;-65
2021/07/12 07:56:13;;;;;;;9.23;2.55;;;;;;;21.74;63.17;101155.00;5007865;28;20069;-65
2021/07/12 07:58:38;;;;;;;8.02;2.78;;;;;;;21.74;63.01;101152.34;4998977;28;20112;-67
2021/07/12 08:01:04;;;;;;;8.95;2.90;;;;;;;21.75;63.15;101162.00;5009043;28;20034;-66
2021/07/12 08:03:30;;;;;;;14.88;3.20;;;;;;;21.75;63.08;101153.97;5008063;28;20469;-66
2021/07/12 08:05:55;;;;;;;8.25;3.38;;;;;;;21.74;62.83;101158.50;5007757;28;20038;-66
2021/07/12 08:08:20;;;;;;;10.85;3.03;;;;;;;21.75;63.00;101162.81;5000635;28;20109;-66
2021/07/12 08:10:46;;;;;;;14.05;4.03;;;;;;;21.75;63.19;101162.00;4989659;28;20092;-66
2021/07/12 08:13:13;;;;;;;15.43;3.45;;;;;;;21.75;63.43;101156.66;5007618;28;20100;-66
2021/07/12 08:15:39;;;;;;;9.98;3.92;;;;;;;21.76;63.50;101163.63;5008330;28;20037;-66
2021/07/12 08:18:05;;;;;;;13.52;3.83;;;;;;;21.74;63.66;101161.16;5015312;28;20121;-66
2021/07/12 08:20:31;;;;;;;13.45;4.03;;;;;;;21.75;63.32;101165.47;5007313;28;20141;-66
2021/07/12 08:22:56;;;;;;;8.73;3.10;;;;;;;21.75;63.58;101170.00;5008647;28;20477;-65
2021/07/12 08:25:23;;;;;;;10.40;3.13;;;;;;;21.74;63.02;101171.84;5002179;28;20466;-66
2021/07/12 08:27:49;;;;;;;7.85;3.05;;;;;;;21.73;63.01;101178.22;5001974;28;20050;-66
2021/07/12 08:30:15;;;;;;;9.65;2.90;;;;;;;21.73;62.54;101174.72;5008351;28;20109;-66
2021/07/12 08:32:42;;;;;;;5.80;2.58;;;;;;;21.72;62.47;101176.56;5005613;28;20069;-66
2021/07/12 08:35:09;;;;;;;7.80;2.80;;;;;;;21.73;62.61;101182.75;5005150;28;20037;-66
2021/07/12 08:37:34;;;;;;;6.72;2.45;;;;;;;21.70;62.43;101175.13;5023955;28;20073;-66
2021/07/12 08:40:01;;;;;;;8.20;2.80;;;;;;;21.70;62.67;101181.31;5012814;28;20034;-66
2021/07/12 08:42:27;;;;;;;7.45;2.70;;;;;;;21.70;62.12;101178.63;5008986;28;20108;-66
2021/07/12 08:44:52;;;;;;;6.78;2.28;;;;;;;21.71;62.59;101182.13;5008313;28;20041;-66
2021/07/12 08:47:18;;;;;;;6.10;2.50;;;;;;;21.69;62.44;101179.66;5007685;28;20029;-66
2021/07/12 08:49:43;;;;;;;7.78;2.40;;;;;;;21.69;62.42;101182.31;4990128;28;20104;-66
2021/07/12 08:52:09;;;;;;;5.20;2.78;;;;;;;21.69;62.26;101185.00;5007483;28;20366;-66
2021/07/12 08:54:38;;;;;;;7.03;2.40;;;;;;;21.69;62.38;101193.00;5007939;28;20030;-66
2021/07/12 08:57:05;;;;;;;4.97;2.28;;;;;;;21.69;62.65;101193.00;5007904;28;20457;-66
2021/07/12 08:59:36;;;;;;;5.20;2.20;;;;;;;21.70;62.49;101191.16;5007153;28;20084;-66
2021/07/12 09:02:16;;;;;;;5.95;2.05;;;;;;;21.66;62.65;101195.25;5008468;28;20044;-66
2021/07/12 09:04:44;;;;;;;2.60;1.42;;;;;;;21.68;62.44;101193.22;5005575;28;20037;-66
2021/07/12 09:07:12;;;;;;;6.75;1.95;;;;;;;21.68;62.24;101190.53;5009730;28;20358;-66
2021/07/12 09:09:38;;;;;;;4.35;1.80;;;;;;;21.67;62.47;101188.91;5011775;28;20040;-66
2021/07/12 09:12:15;;;;;;;4.63;1.63;;;;;;;21.63;62.05;101196.50;5012462;28;20396;-66
2021/07/12 09:14:59;;;;;;;5.55;1.88;;;;;;;21.66;62.23;101203.28;5005834;28;20033;-66
2021/07/12 09:17:32;;;;;;;3.63;1.63;;;;;;;21.63;62.08;101201.84;5012460;28;20029;-66
2021/07/12 09:19:58;;;;;;;5.55;1.95;;;;;;;21.65;62.07;101202.44;5011543;28;20040;-65
2021/07/12 09:22:31;;;;;;;3.40;1.73;;;;;;;21.63;61.91;101195.66;5012260;28;20033;-66
2021/07/12 09:25:00;;;;;;;5.40;1.85;;;;;;;21.64;61.96;101202.66;5011753;28;20036;-66
2021/07/12 09:27:30;;;;;;;3.65;1.60;;;;;;;21.62;61.93;101194.84;5020443;28;20053;-66
2021/07/12 09:29:57;;;;;;;3.03;1.35;;;;;;;21.62;62.06;101194.84;4999329;28;20121;-66
2021/07/12 09:32:26;;;;;;;3.30;1.50;;;;;;;21.61;61.96;101195.03;5007842;28;20468;-66
2021/07/12 09:34:57;;;;;;;2.30;1.20;;;;;;;21.59;62.04;101179.22;5005869;28;20030;-66
2021/07/12 09:37:24;;;;;;;2.65;1.40;;;;;;;21.60;62.08;101193.38;5012294;28;20029;-65
2021/07/12 09:39:51;;;;;;;3.08;1.58;;;;;;;21.59;61.90;101194.41;5011369;28;20040;-66
2021/07/12 09:42:19;;;;;;;1.63;1.25;;;;;;;21.58;62.30;101198.09;5011902;28;20124;-66
2021/07/12 09:44:51;;;;;;;3.80;1.73;;;;;;;21.57;62.40;101196.44;5011571;28;20064;-66
2021/07/12 09:47:22;;;;;;;3.42;1.50;;;;;;;21.56;61.98;101198.31;5011549;28;20064;-66
2021/07/12 09:49:49;;;;;;;2.72;1.50;;;;;;;21.56;62.01;101200.16;5010326;28;20029;-66
2021/07/12 09:52:18;;;;;;;3.60;1.58;;;;;;;21.55;62.20;101198.50;5011244;28;20342;-66
2021/07/12 09:54:45;;;;;;;2.40;1.48;;;;;;;21.53;62.13;101207.53;5011364;28;20481;-66
2021/07/12 09:57:19;;;;;;;2.10;1.35;;;;;;;21.51;62.28;101204.25;5011749;28;20068;-66
2021/07/12 10:00:00;;;;;;;4.45;1.48;;;;;;;21.49;62.13;101198.28;5011019;28;20122;-66
2021/07/12 10:02:28;;;;;;;2.35;1.40;;;;;;;21.52;62.05;101202.41;5011772;28;20133;-66
2021/07/12 10:05:08;;;;;;;1.70;1.27;;;;;;;21.50;61.94;101210.63;5010201;28;20592;-66
2021/07/12 10:07:33;;;;;;;3.40;1.80;;;;;;;21.53;62.14;101207.53;5011360;28;20033;-65
2021/07/12 10:10:08;;;;;;;2.80;1.80;;;;;;;21.51;62.03;101212.25;5010654;28;20042;-67
2021/07/12 10:12:34;;;;;;;2.65;1.63;;;;;;;21.51;61.97;101209.59;5011217;28;20029;-66
2021/07/12 10:15:00;;;;;;;3.33;2.17;;;;;;;21.50;61.91;101215.13;5010707;28;20034;-65
2021/07/12 10:17:25;;;;;;;4.57;2.10;;;;;;;21.49;61.74;101214.31;5011067;28;20473;-66
2021/07/12 10:19:50;;;;;;;3.92;2.10;;;;;;;21.49;62.16;101211.63;5008653;28;20026;-66
2021/07/12 10:22:21;;;;;;;2.88;1.92;;;;;;;21.49;61.85;101214.31;5002329;28;20034;-67
2021/07/12 10:24:47;;;;;;;3.63;2.10;;;;;;;21.49;61.79;101211.63;5006551;28;20072;-66
2021/07/12 10:27:27;;;;;;;3.50;2.10;;;;;;;21.47;61.93;101207.53;5021805;28;20081;-66
2021/07/12 10:30:17;;;;;;;4.07;1.98;;;;;;;21.48;61.75;101212.66;4992662;28;20025;-65
2021/07/12 10:32:50;;;;;;;2.50;1.90;;;;;;;21.48;61.78;101215.34;5006923;28;20030;-65
2021/07/12 10:35:53;;;;;;;3.35;2.08;;;;;;;21.44;62.10;101208.72;5007958;28;20030;-65
2021/07/12 10:38:25;;;;;;;4.07;2.42;;;;;;;21.46;62.05;101201.38;5005857;28;20046;-66
2021/07/12 10:40:55;;;;;;;3.50;2.30;;;;;;;21.47;61.80;101210.19;5009737;28;20803;-66
2021/07/12 10:43:33;;;;;;;5.00;2.20;;;;;;;21.44;61.73;101207.91;5010569;28;20113;-66
2021/07/12 10:45:59;;;;;;;4.43;2.20;;;;;;;21.46;61.50;101211.19;5009451;28;20084;-66
2021/07/12 10:48:37;;;;;;;2.90;2.08;;;;;;;21.44;61.89;101207.91;5001495;28;20022;-66
2021/07/12 10:51:19;;;;;;;3.97;2.30;;;;;;;21.39;61.86;101208.50;5009520;28;20025;-67
2021/07/12 10:54:12;;;;;;;3.22;2.40;;;;;;;21.37;61.66;101212.41;5010509;28;20044;-66
2021/07/12 10:56:42;;;;;;;3.63;2.10;;;;;;;21.40;61.72;101218.16;5008254;28;20540;-66
2021/07/12 10:59:08;;;;;;;3.97;2.42;;;;;;;21.41;61.59;101208.31;5010454;28;20036;-66
2021/07/12 11:01:40;;;;;;;3.13;2.15;;;;;;;21.39;61.85;101213.84;5009641;28;20038;-66
2021/07/12 11:04:36;;;;;;;2.72;2.22;;;;;;;21.35;61.50;101217.94;5010390;28;20034;-67
2021/07/12 11:07:07;;;;;;;3.03;2.22;;;;;;;21.39;61.42;101216.50;5004063;28;20064;-66
2021/07/12 11:09:47;;;;;;;3.63;2.25;;;;;;;21.37;61.83;101218.56;5003033;28;20025;-66
2021/07/12 11:12:32;;;;;;;4.95;2.45;;;;;;;21.35;61.72;101215.28;5004885;28;20025;-66
2021/07/12 11:15:13;;;;;;;5.18;2.50;;;;;;;21.37;61.73;101215.06;5009271;28;20532;-67
2021/07/12 11:18:01;;;;;;;4.35;2.20;;;;;;;21.35;61.83;101220.59;5009573;28;20026;-66
2021/07/12 11:20:39;;;;;;;3.58;2.08;;;;;;;21.37;61.68;101226.56;4997941;28;20416;-66
2021/07/12 11:23:05;;;;;;;4.00;2.28;;;;;;;21.40;61.73;101220.00;5003548;28;20029;-66
2021/07/12 11:25:38;;;;;;;2.70;2.10;;;;;;;21.37;61.73;101218.56;4997942;28;20072;-66
2021/07/12 11:28:14;;;;;;;3.35;2.05;;;;;;;21.39;61.65;101213.84;4995559;28;20069;-66
2021/07/12 11:30:40;;;;;;;3.72;2.15;;;;;;;21.38;61.82;101219.38;4998490;28;20057;-66
2021/07/12 11:33:06;;;;;;;4.75;2.17;;;;;;;21.39;61.72;101207.69;5003500;28;20068;-66